Time;durP1;ratioP1;P1;durP2;ratioP2;P2;SDS_P1;SDS_P2;PMS_P1;PMS_P2;Temp;Humidity;BMP_temperature;BMP_pressure;BME280_temperature;BME280_humidity;BME280_pressure;Samples;Min_cycle;Max_cycle;Signal;HPM_P1;HPM_P2
2021/07/23 00:00:28;;;;;;;21.70;15.25;;;16.80;99.90;;;;;;4976536;28;20493;-72
2021/07/23 00:02:53;;;;;;;18.92;15.07;;;16.30;99.90;;;;;;4976652;28;20033;-72
2021/07/23 00:05:19;;;;;;;18.17;15.40;;;16.00;99.90;;;;;;4976455;28;20420;-72
2021/07/23 00:07:45;;;;;;;20.08;15.20;;;16.00;99.90;;;;;;4976657;28;20389;-72
2021/07/23 00:10:11;;;;;;;18.15;12.85;;;16.10;99.90;;;;;;4976322;28;20473;-72
2021/07/23 00:12:36;;;;;;;18.92;14.70;;;16.40;99.90;;;;;;4976281;28;20117;-72
2021/07/23 00:15:03;;;;;;;18.27;13.73;;;16.50;99.90;;;;;;4976142;28;20512;-72
2021/07/23 00:17:28;;;;;;;19.50;13.98;;;16.60;99.90;;;;;;4976327;28;20389;-72
2021/07/23 00:19:54;;;;;;;23.17;13.80;;;16.70;99.90;;;;;;4976093;28;20030;-72
2021/07/23 00:22:20;;;;;;;21.10;14.45;;;16.90;99.90;;;;;;4974927;28;20118;-72
2021/07/23 00:24:45;;;;;;;19.70;14.73;;;17.00;99.90;;;;;;4975801;28;20394;-72
2021/07/23 00:27:11;;;;;;;21.77;15.27;;;16.80;99.90;;;;;;4976031;28;20034;-72
2021/07/23 00:29:36;;;;;;;20.33;15.07;;;16.50;99.90;;;;;;4975923;28;20038;-72
2021/07/23 00:32:02;;;;;;;22.45;15.77;;;16.90;99.90;;;;;;4976005;28;20031;-72
2021/07/23 00:34:27;;;;;;;19.33;14.90;;;17.00;99.90;;;;;;4974525;28;20034;-72
2021/07/23 00:36:53;;;;;;;21.13;15.07;;;16.90;99.90;;;;;;4975948;28;20039;-72
2021/07/23 00:39:18;;;;;;;20.33;14.93;;;16.70;99.90;;;;;;4975785;28;20054;-72
2021/07/23 00:41:44;;;;;;;24.42;16.23;;;16.90;99.90;;;;;;4975657;28;20373;-72
2021/07/23 00:44:09;;;;;;;23.98;16.02;;;16.80;99.90;;;;;;4975728;28;20082;-72
2021/07/23 00:46:37;;;;;;;20.65;14.77;;;17.00;99.90;;;;;;4975661;28;20029;-72
2021/07/23 00:49:03;;;;;;;21.23;14.80;;;16.90;99.90;;;;;;4974344;28;20037;-72
2021/07/23 00:51:29;;;;;;;24.77;15.15;;;16.80;99.90;;;;;;5006400;28;20030;-72
2021/07/23 00:53:55;;;;;;;22.17;15.07;;;16.70;99.90;;;;;;4996019;28;20030;-72
2021/07/23 00:56:21;;;;;;;20.48;14.55;;;16.50;99.90;;;;;;4993340;28;20066;-72
2021/07/23 00:58:47;;;;;;;24.17;14.93;;;16.50;99.90;;;;;;4976138;28;20026;-72
2021/07/23 01:01:12;;;;;;;21.23;14.93;;;16.60;99.90;;;;;;4975539;28;20038;-72
2021/07/23 01:03:38;;;;;;;23.30;14.90;;;15.80;99.90;;;;;;4975329;28;20030;-72
2021/07/23 01:06:04;;;;;;;20.80;15.50;;;15.20;99.90;;;;;;4975616;28;20026;-72
2021/07/23 01:08:30;;;;;;;23.33;14.60;;;15.30;99.90;;;;;;4975329;28;20039;-72
2021/07/23 01:10:55;;;;;;;26.35;14.23;;;15.70;99.90;;;;;;4975287;28;20026;-72
2021/07/23 01:13:21;;;;;;;23.42;13.90;;;15.80;99.90;;;;;;4975213;28;20109;-72
2021/07/23 01:15:47;;;;;;;19.83;13.98;;;15.10;99.90;;;;;;4973797;28;20023;-72
2021/07/23 01:18:13;;;;;;;21.45;15.75;;;14.80;99.90;;;;;;4975116;28;20030;-72
2021/07/23 01:20:40;;;;;;;22.55;14.77;;;15.00;99.90;;;;;;4973913;28;20505;-72
2021/07/23 01:23:06;;;;;;;21.58;15.23;;;15.30;99.90;;;;;;4974984;28;20023;-72
2021/07/23 01:25:34;;;;;;;17.55;8.52;;;15.30;99.90;;;;;;4973449;28;20374;-72
2021/07/23 01:28:01;;;;;;;14.98;8.25;;;15.50;99.90;;;;;;4974894;28;20085;-72
2021/07/23 01:30:26;;;;;;;18.08;8.65;;;15.50;99.90;;;;;;4974938;28;20106;-72
2021/07/23 01:32:53;;;;;;;16.92;7.78;;;15.60;99.90;;;;;;4973571;28;20114;-72
2021/07/23 01:35:20;;;;;;;15.45;7.03;;;15.60;99.90;;;;;;4974820;28;20049;-72
2021/07/23 01:37:46;;;;;;;13.15;7.22;;;15.50;99.90;;;;;;4973447;28;20030;-72
2021/07/23 01:40:13;;;;;;;13.77;5.32;;;15.80;99.90;;;;;;4974700;28;20122;-72
2021/07/23 01:42:40;;;;;;;10.32;5.97;;;15.60;99.90;;;;;;4974592;28;20037;-72
2021/07/23 01:45:06;;;;;;;15.07;7.90;;;15.70;99.90;;;;;;4974432;28;20097;-72
2021/07/23 01:47:32;;;;;;;17.17;9.40;;;15.70;99.90;;;;;;4974952;28;20110;-72
2021/07/23 01:49:58;;;;;;;15.65;9.15;;;15.60;99.90;;;;;;4980676;28;20543;-72
2021/07/23 01:52:24;;;;;;;18.45;8.88;;;15.50;99.90;;;;;;5007190;28;20029;-72
2021/07/23 01:54:50;;;;;;;15.70;8.38;;;15.50;99.90;;;;;;4992414;28;20042;-72
2021/07/23 01:57:15;;;;;;;26.60;19.85;;;15.70;99.90;;;;;;4987706;28;20054;-72
2021/07/23 01:59:41;;;;;;;23.80;18.30;;;15.60;99.90;;;;;;4973159;28;20031;-72
2021/07/23 02:02:07;;;;;;;21.88;13.13;;;15.50;99.90;;;;;;4974166;28;20511;-72
2021/07/23 02:04:34;;;;;;;17.60;10.05;;;15.50;99.90;;;;;;4974158;28;20026;-72
2021/07/23 02:06:59;;;;;;;20.88;11.02;;;15.40;99.90;;;;;;4973866;28;20030;-72
2021/07/23 02:09:25;;;;;;;19.95;10.85;;;15.40;99.90;;;;;;4974053;28;20023;-72
2021/07/23 02:11:50;;;;;;;16.58;9.43;;;15.40;99.90;;;;;;4974106;28;20026;-72
2021/07/23 02:14:16;;;;;;;18.58;9.73;;;15.30;99.90;;;;;;4974177;28;20023;-72
2021/07/23 02:16:42;;;;;;;15.98;10.18;;;15.10;99.90;;;;;;4973920;28;20489;-72
2021/07/23 02:19:07;;;;;;;18.02;9.88;;;15.10;99.90;;;;;;4973994;28;20026;-72
2021/07/23 02:21:36;;;;;;;16.38;9.75;;;14.90;99.90;;;;;;4973850;28;20027;-72
2021/07/23 02:24:06;;;;;;;17.48;8.68;;;14.90;99.90;;;;;;4973917;28;20035;-72
2021/07/23 02:26:31;;;;;;;17.30;9.85;;;15.00;99.90;;;;;;4972368;28;20033;-72
2021/07/23 02:28:57;;;;;;;16.25;9.40;;;15.10;99.90;;;;;;4973772;28;20489;-72
2021/07/23 02:31:24;;;;;;;23.33;15.30;;;15.10;99.90;;;;;;4973800;28;20023;-72
2021/07/23 02:33:49;;;;;;;19.42;11.55;;;15.20;99.90;;;;;;4973824;28;20600;-72
2021/07/23 02:36:15;;;;;;;11.98;8.35;;;14.80;99.90;;;;;;4973455;28;20031;-72
2021/07/23 02:38:40;;;;;;;18.38;11.45;;;14.40;99.90;;;;;;4973682;28;20030;-72
2021/07/23 02:41:06;;;;;;;24.20;12.40;;;14.20;99.90;;;;;;4973720;28;20556;-72
2021/07/23 02:43:32;;;;;;;21.60;9.57;;;14.60;99.90;;;;;;4973684;28;20118;-72
2021/07/23 02:45:57;;;;;;;14.60;7.43;;;15.10;99.90;;;;;;4973347;28;20069;-72
2021/07/23 02:48:23;;;;;;;18.88;8.52;;;15.20;99.90;;;;;;4973421;28;20047;-72
2021/07/23 02:50:49;;;;;;;18.77;8.70;;;15.30;99.90;;;;;;4993442;28;20100;-72
2021/07/23 02:53:17;;;;;;;18.40;9.38;;;15.20;99.90;;;;;;4998880;28;20037;-72
2021/07/23 02:55:42;;;;;;;15.88;8.50;;;15.50;99.90;;;;;;4992626;28;20018;-72
2021/07/23 02:58:08;;;;;;;16.77;7.75;;;14.90;99.90;;;;;;4977904;28;20165;-72
2021/07/23 03:00:33;;;;;;;12.93;7.65;;;14.80;99.90;;;;;;4973375;28;20042;-72
2021/07/23 03:03:02;;;;;;;19.08;11.13;;;14.60;99.90;;;;;;4973292;28;20027;-72
2021/07/23 03:05:28;;;;;;;20.98;11.80;;;14.70;99.90;;;;;;4973018;28;20120;-72
2021/07/23 03:07:53;;;;;;;22.25;12.52;;;14.70;99.90;;;;;;4973318;28;20505;-72
2021/07/23 03:10:19;;;;;;;19.33;11.77;;;14.90;99.90;;;;;;4973387;28;20046;-72
2021/07/23 03:12:45;;;;;;;20.83;11.90;;;14.70;99.90;;;;;;4973203;28;20030;-72
2021/07/23 03:15:11;;;;;;;20.17;12.00;;;14.60;99.90;;;;;;4973003;28;20035;-72
2021/07/23 03:17:37;;;;;;;20.77;10.27;;;14.60;99.90;;;;;;4973115;28;20074;-72
2021/07/23 03:20:03;;;;;;;27.13;17.30;;;14.50;99.90;;;;;;4970950;28;20030;-72
2021/07/23 03:22:29;;;;;;;29.80;18.83;;;14.70;99.90;;;;;;4985913;28;20049;-72
2021/07/23 03:24:55;;;;;;;28.67;19.10;;;14.80;99.90;;;;;;4992171;28;20053;-72
2021/07/23 03:27:21;;;;;;;30.17;20.73;;;14.60;99.90;;;;;;4992400;28;20054;-72
2021/07/23 03:29:47;;;;;;;30.52;21.45;;;14.70;99.90;;;;;;4992345;28;20030;-72
2021/07/23 03:32:12;;;;;;;30.58;21.50;;;14.90;99.90;;;;;;4992304;28;20035;-72
2021/07/23 03:34:38;;;;;;;28.73;20.98;;;15.00;99.90;;;;;;4991922;28;20035;-72
2021/07/23 03:37:03;;;;;;;35.90;21.42;;;14.90;99.90;;;;;;4991029;28;20022;-72
2021/07/23 03:39:29;;;;;;;28.95;21.13;;;14.90;99.90;;;;;;4992271;28;20026;-72
2021/07/23 03:41:54;;;;;;;31.58;21.38;;;15.00;99.90;;;;;;4992197;28;20026;-72
2021/07/23 03:44:20;;;;;;;28.70;20.80;;;15.10;99.90;;;;;;4992049;28;20388;-72
2021/07/23 03:46:45;;;;;;;30.58;21.25;;;15.10;99.90;;;;;;4992150;28;20026;-72
2021/07/23 03:49:11;;;;;;;31.17;22.60;;;15.00;99.90;;;;;;4992406;28;20485;-72
2021/07/23 03:51:36;;;;;;;34.30;22.50;;;14.90;99.90;;;;;;5005275;28;20080;-72
2021/07/23 03:54:02;;;;;;;32.78;22.30;;;14.70;99.90;;;;;;4992101;28;20498;-72
2021/07/23 03:56:27;;;;;;;29.85;21.90;;;14.50;99.90;;;;;;4991524;28;20456;-72
2021/07/23 03:58:53;;;;;;;31.50;21.20;;;14.30;99.90;;;;;;4972571;28;20023;-72
2021/07/23 04:01:19;;;;;;;28.20;21.55;;;13.70;99.90;;;;;;4972701;28;20425;-72
2021/07/23 04:03:44;;;;;;;27.25;19.08;;;13.80;99.90;;;;;;4972507;28;20031;-72
2021/07/23 04:06:10;;;;;;;30.63;20.27;;;13.90;99.90;;;;;;4972462;28;20125;-72
2021/07/23 04:08:35;;;;;;;33.38;21.45;;;14.00;99.90;;;;;;4972508;28;20050;-72
2021/07/23 04:11:01;;;;;;;31.13;21.77;;;13.80;99.90;;;;;;4972650;28;20417;-72
2021/07/23 04:13:28;;;;;;;33.58;21.65;;;13.80;99.90;;;;;;4972975;28;20073;-72
2021/07/23 04:15:53;;;;;;;31.70;21.58;;;13.90;99.90;;;;;;4972386;28;20504;-72
2021/07/23 04:18:19;;;;;;;34.13;21.13;;;14.10;99.90;;;;;;4972344;28;20073;-72
2021/07/23 04:20:44;;;;;;;29.30;20.20;;;14.20;99.90;;;;;;4972542;28;20027;-72
2021/07/23 04:23:10;;;;;;;30.90;18.92;;;14.20;99.90;;;;;;4972355;28;20125;-72
2021/07/23 04:25:38;;;;;;;29.75;20.45;;;14.40;99.90;;;;;;4972343;28;20038;-72
2021/07/23 04:28:04;;;;;;;29.35;18.77;;;14.50;99.90;;;;;;4972420;28;20023;-72
2021/07/23 04:30:30;;;;;;;29.70;18.40;;;14.70;99.90;;;;;;4973019;28;20100;-72
2021/07/23 04:32:55;;;;;;;26.45;15.82;;;14.60;99.90;;;;;;4975960;28;20655;-72
2021/07/23 04:35:21;;;;;;;27.15;15.10;;;14.70;99.90;;;;;;4976053;28;20473;-72
2021/07/23 04:37:46;;;;;;;23.80;14.45;;;14.60;99.90;;;;;;4975858;28;20038;-73
2021/07/23 04:40:13;;;;;;;22.88;14.23;;;14.80;99.90;;;;;;4975905;28;20117;-72
2021/07/23 04:42:38;;;;;;;23.02;14.52;;;14.80;99.90;;;;;;4976106;28;20117;-72
2021/07/23 04:45:05;;;;;;;23.50;14.80;;;14.70;99.90;;;;;;4975735;28;20050;-72
2021/07/23 04:47:31;;;;;;;24.65;12.00;;;14.90;99.90;;;;;;4975744;28;20504;-72
2021/07/23 04:49:56;;;;;;;27.63;13.38;;;15.00;99.90;;;;;;4980211;28;20117;-72
2021/07/23 04:52:22;;;;;;;19.48;11.27;;;15.00;99.90;;;;;;5006760;28;20109;-72
2021/07/23 04:54:47;;;;;;;28.17;13.43;;;15.00;99.90;;;;;;4994618;28;20030;-72
2021/07/23 04:57:15;;;;;;;28.52;13.77;;;15.00;99.90;;;;;;4988881;28;20500;-72
2021/07/23 04:59:40;;;;;;;31.77;19.67;;;15.10;99.90;;;;;;4975481;28;20117;-72
2021/07/23 05:02:06;;;;;;;29.95;20.30;;;15.30;99.90;;;;;;4975261;28;21970;-72
2021/07/23 05:04:35;;;;;;;31.02;19.50;;;15.30;99.90;;;;;;4975256;28;20046;-72
2021/07/23 05:07:01;;;;;;;28.50;19.30;;;15.50;99.90;;;;;;4975502;28;20027;-72
2021/07/23 05:09:26;;;;;;;28.83;19.85;;;15.60;99.90;;;;;;4974033;28;20519;-72
2021/07/23 05:11:52;;;;;;;27.52;19.27;;;15.50;99.90;;;;;;4975352;28;20023;-72
2021/07/23 05:14:17;;;;;;;28.92;19.13;;;15.80;99.90;;;;;;4975158;28;20034;-72
2021/07/23 05:16:43;;;;;;;31.00;20.35;;;15.70;99.90;;;;;;4981508;28;20026;-72
2021/07/23 05:19:11;;;;;;;23.75;12.15;;;15.60;99.90;;;;;;4994672;28;20034;-72
2021/07/23 05:21:38;;;;;;;17.73;9.15;;;15.60;99.90;;;;;;4994540;28;20073;-72
2021/07/23 05:24:04;;;;;;;22.90;10.43;;;15.30;99.90;;;;;;4994273;28;20037;-72
2021/07/23 05:26:34;;;;;;;22.88;11.25;;;15.40;99.90;;;;;;4994410;28;20134;-72
2021/07/23 05:28:59;;;;;;;24.92;13.10;;;15.80;99.90;;;;;;4994786;28;20419;-72
2021/07/23 05:31:25;;;;;;;26.73;15.02;;;15.70;99.90;;;;;;4994415;28;20022;-72
2021/07/23 05:33:50;;;;;;;29.52;14.90;;;15.60;99.90;;;;;;4994271;28;20026;-72
2021/07/23 05:36:16;;;;;;;23.83;12.63;;;15.90;99.90;;;;;;4994096;28;20081;-72
2021/07/23 05:38:41;;;;;;;24.75;12.80;;;15.60;99.90;;;;;;4994038;28;20076;-72
2021/07/23 05:41:08;;;;;;;23.30;11.82;;;15.70;99.90;;;;;;4994215;28;20062;-72
2021/07/23 05:43:34;;;;;;;27.00;15.90;;;16.00;99.90;;;;;;4993314;28;20539;-72
2021/07/23 05:46:06;;;;;;;27.98;16.42;;;16.00;99.90;;;;;;4992766;28;20038;-72
2021/07/23 05:48:35;;;;;;;25.90;11.60;;;16.00;99.90;;;;;;4993964;28;20038;-72
2021/07/23 05:51:02;;;;;;;25.23;15.25;;;16.00;99.90;;;;;;5002806;28;20022;-72
2021/07/23 05:53:28;;;;;;;806.10;369.58;;;16.20;99.90;;;;;;4998229;28;20031;-72
2021/07/23 05:55:53;;;;;;;35.65;28.85;;;16.20;99.90;;;;;;4992296;28;20404;-72
2021/07/23 05:58:19;;;;;;;30.65;16.77;;;16.30;99.90;;;;;;4978168;28;20027;-72
2021/07/23 06:00:44;;;;;;;32.00;16.08;;;16.50;99.90;;;;;;4974356;28;20046;-72
2021/07/23 06:03:10;;;;;;;25.98;14.40;;;16.50;99.90;;;;;;4974367;28;20171;-72
2021/07/23 06:05:35;;;;;;;26.35;14.05;;;16.50;99.90;;;;;;4974146;28;20029;-72
2021/07/23 06:08:01;;;;;;;25.17;13.98;;;16.60;99.90;;;;;;4974353;28;20034;-72
2021/07/23 06:10:27;;;;;;;24.10;13.00;;;16.80;99.90;;;;;;4974219;28;20545;-72
2021/07/23 06:12:52;;;;;;;24.50;12.93;;;16.80;99.90;;;;;;4973073;28;20101;-72
2021/07/23 06:15:18;;;;;;;24.48;13.45;;;16.90;99.90;;;;;;4973064;28;20089;-72
2021/07/23 06:17:43;;;;;;;23.75;11.43;;;17.10;99.90;;;;;;4973011;28;20496;-72
2021/07/23 06:20:10;;;;;;;21.35;11.75;;;17.20;99.90;;;;;;4972712;28;20023;-72
2021/07/23 06:22:35;;;;;;;24.05;12.07;;;17.30;99.90;;;;;;4973948;28;20491;-72
2021/07/23 06:25:01;;;;;;;22.08;11.70;;;17.50;99.90;;;;;;4973850;28;20031;-72
2021/07/23 06:27:26;;;;;;;22.33;10.85;;;17.40;99.90;;;;;;4973847;28;20081;-72
2021/07/23 06:29:53;;;;;;;22.25;10.27;;;17.40;99.90;;;;;;4982081;28;20105;-72
2021/07/23 06:32:20;;;;;;;18.98;10.30;;;17.50;99.90;;;;;;4991336;28;20476;-72
2021/07/23 06:34:46;;;;;;;20.67;10.15;;;17.60;99.90;;;;;;4972367;28;20089;-72
2021/07/23 06:37:12;;;;;;;21.98;10.88;;;17.70;99.90;;;;;;4972422;28;20038;-72
2021/07/23 06:39:37;;;;;;;22.95;11.20;;;17.90;99.90;;;;;;4973981;28;20424;-72
2021/07/23 06:42:03;;;;;;;21.05;11.45;;;18.00;99.90;;;;;;4972212;28;20027;-72
2021/07/23 06:44:30;;;;;;;21.02;10.48;;;18.00;99.90;;;;;;4972185;28;20027;-72
2021/07/23 06:46:55;;;;;;;26.77;12.25;;;18.10;99.90;;;;;;4972280;28;20394;-72
2021/07/23 06:49:21;;;;;;;21.40;10.40;;;18.20;99.90;;;;;;4974453;28;20030;-72
2021/07/23 06:51:46;;;;;;;26.33;11.18;;;18.30;99.90;;;;;;5004620;28;20026;-72
2021/07/23 06:54:13;;;;;;;14.38;8.98;;;18.40;99.90;;;;;;4992848;28;20030;-72
2021/07/23 06:56:39;;;;;;;41.60;33.78;;;18.50;99.90;;;;;;4990936;28;20026;-72
2021/07/23 06:59:05;;;;;;;24.13;13.20;;;18.70;99.90;;;;;;4973458;28;20080;-72
2021/07/23 07:01:30;;;;;;;22.88;12.45;;;18.70;99.90;;;;;;4972091;28;20034;-72
2021/07/23 07:03:55;;;;;;;19.20;11.27;;;18.70;99.90;;;;;;4973546;28;20177;-72
2021/07/23 07:06:21;;;;;;;19.70;11.43;;;18.80;99.90;;;;;;4972989;28;20022;-72
2021/07/23 07:08:46;;;;;;;20.08;11.90;;;18.80;99.90;;;;;;4973218;28;20034;-72
2021/07/23 07:11:12;;;;;;;22.50;12.13;;;18.90;99.90;;;;;;4973110;28;20026;-72
2021/07/23 07:13:37;;;;;;;23.35;12.13;;;18.90;99.90;;;;;;4973186;28;20030;-72
2021/07/23 07:16:03;;;;;;;21.33;11.23;;;18.90;99.90;;;;;;4972956;28;20523;-72
2021/07/23 07:18:29;;;;;;;24.65;11.48;;;19.00;99.90;;;;;;4971850;28;20035;-72
2021/07/23 07:20:54;;;;;;;26.30;16.23;;;19.10;99.90;;;;;;4973117;28;20489;-72
2021/07/23 07:23:20;;;;;;;20.70;13.55;;;19.30;99.90;;;;;;4973079;28;20038;-72
2021/07/23 07:25:45;;;;;;;22.75;13.45;;;19.70;99.90;;;;;;4972697;28;20362;-72
2021/07/23 07:28:11;;;;;;;20.00;13.07;;;19.70;99.90;;;;;;4973141;28;20023;-72
2021/07/23 07:30:37;;;;;;;681.45;508.10;;;19.80;99.90;;;;;;4972812;28;20540;-72
2021/07/23 07:33:03;;;;;;;21.45;11.85;;;19.70;99.90;;;;;;4972933;28;20440;-72
2021/07/23 07:35:28;;;;;;;20.55;12.40;;;19.70;99.90;;;;;;4972574;28;20034;-72
2021/07/23 07:37:54;;;;;;;20.50;11.68;;;19.80;99.90;;;;;;4972898;28;20027;-72
2021/07/23 07:40:20;;;;;;;11.80;7.13;;;19.80;99.90;;;;;;4972757;28;20030;-72
2021/07/23 07:42:45;;;;;;;11.57;6.43;;;20.00;99.90;;;;;;4972829;28;20054;-72
2021/07/23 07:45:11;;;;;;;11.07;5.95;;;20.20;99.90;;;;;;4972676;28;20027;-72
2021/07/23 07:47:37;;;;;;;17.48;9.77;;;20.20;99.90;;;;;;4972829;28;20031;-72
2021/07/23 07:50:04;;;;;;;18.83;8.65;;;20.40;99.90;;;;;;4980074;28;20041;-72
2021/07/23 07:52:29;;;;;;;18.65;9.73;;;20.30;99.90;;;;;;5004627;28;20026;-72
2021/07/23 07:54:55;;;;;;;19.95;10.93;;;20.30;99.90;;;;;;4991862;28;20023;-72
2021/07/23 07:57:21;;;;;;;17.98;11.25;;;20.30;99.90;;;;;;4983552;28;20129;-72
2021/07/23 07:59:47;;;;;;;22.58;11.27;;;20.30;99.90;;;;;;4972666;28;20026;-72
2021/07/23 08:02:13;;;;;;;788.50;92.80;;;20.40;99.90;;;;;;4972575;28;20037;-72
2021/07/23 08:04:39;;;;;;;19.55;14.15;;;20.60;99.90;;;;;;4972323;28;20027;-72
2021/07/23 08:07:07;;;;;;;20.58;13.15;;;20.70;99.90;;;;;;4975761;28;20393;-72
2021/07/23 08:09:58;;;;;;;19.63;14.65;;;20.80;99.90;;;;;;4976182;28;20473;-72
2021/07/23 08:12:24;;;;;;;23.00;16.70;;;20.90;99.90;;;;;;4976453;28;20333;-72
2021/07/23 08:14:50;;;;;;;23.45;16.25;;;20.90;99.90;;;;;;4976112;28;20105;-72
2021/07/23 08:17:15;;;;;;;21.45;12.85;;;21.00;99.90;;;;;;4989756;28;20395;-72
2021/07/23 08:19:41;;;;;;;19.42;11.00;;;21.00;99.90;;;;;;4978213;28;20520;-72
2021/07/23 08:22:08;;;;;;;26.77;13.65;;;21.30;99.90;;;;;;4976000;28;20031;-73
2021/07/23 08:24:34;;;;;;;23.33;15.75;;;21.40;99.90;;;;;;4975891;28;20106;-72
2021/07/23 08:26:59;;;;;;;20.75;11.45;;;21.50;99.90;;;;;;4976896;28;20090;-73
2021/07/23 08:29:25;;;;;;;19.33;10.43;;;21.50;99.90;;;;;;4976794;28;20042;-72
2021/07/23 08:31:51;;;;;;;16.35;9.35;;;21.30;99.90;;;;;;4976539;28;20393;-73
2021/07/23 08:34:16;;;;;;;19.35;10.95;;;21.40;99.90;;;;;;4977168;28;20106;-72
2021/07/23 08:36:42;;;;;;;17.38;9.80;;;21.50;99.90;;;;;;4977105;28;20042;-72
2021/07/23 08:39:07;;;;;;;20.85;14.00;;;21.60;99.90;;;;;;4976048;28;20547;-72
2021/07/23 08:41:35;;;;;;;20.60;14.68;;;21.70;99.90;;;;;;4977734;28;20023;-72
2021/07/23 08:44:01;;;;;;;22.27;12.13;;;21.90;99.90;;;;;;4974500;28;20092;-72
2021/07/23 08:46:28;;;;;;;15.85;9.77;;;22.20;99.90;;;;;;4975628;28;20106;-72
2021/07/23 08:48:54;;;;;;;14.88;6.45;;;22.40;99.90;;;;;;4975493;28;20027;-72
2021/07/23 08:51:20;;;;;;;11.93;6.38;;;22.20;99.90;;;;;;5003690;28;20337;-72
2021/07/23 08:53:46;;;;;;;13.35;7.07;;;22.20;99.90;;;;;;4995709;28;20022;-72
2021/07/23 08:56:11;;;;;;;17.17;10.18;;;22.40;99.90;;;;;;4994806;28;20033;-72
2021/07/23 08:58:37;;;;;;;13.80;7.85;;;22.50;99.90;;;;;;4977406;28;20109;-72
2021/07/23 09:01:03;;;;;;;21.63;11.75;;;22.30;99.90;;;;;;4975543;28;20034;-72
2021/07/23 09:03:28;;;;;;;21.38;12.45;;;22.30;99.90;;;;;;4974117;28;20035;-72
2021/07/23 09:05:54;;;;;;;14.32;7.50;;;22.50;99.90;;;;;;4975233;28;20027;-72
2021/07/23 09:08:22;;;;;;;16.98;8.43;;;22.50;99.90;;;;;;4975339;28;20599;-72
2021/07/23 09:11:02;;;;;;;12.38;6.80;;;22.20;99.90;;;;;;4975392;28;20019;-72
2021/07/23 09:13:28;;;;;;;12.73;7.55;;;22.40;99.90;;;;;;4974064;28;20081;-72
2021/07/23 09:15:57;;;;;;;13.60;7.65;;;22.70;99.90;;;;;;4975036;28;20468;-72
2021/07/23 09:18:27;;;;;;;12.07;7.18;;;22.60;99.90;;;;;;4972724;28;20396;-72
2021/07/23 09:21:04;;;;;;;14.93;6.88;;;22.70;99.90;;;;;;4973898;28;20047;-72
2021/07/23 09:23:36;;;;;;;13.65;8.25;;;22.90;99.90;;;;;;4975612;28;20045;-72
2021/07/23 09:26:08;;;;;;;14.02;7.97;;;22.80;99.90;;;;;;4974990;28;20021;-72
2021/07/23 09:28:35;;;;;;;12.13;7.35;;;22.90;99.90;;;;;;4975029;28;20027;-72
2021/07/23 09:31:06;;;;;;;16.52;8.63;;;23.40;99.90;;;;;;4988034;28;20577;-72
2021/07/23 09:33:40;;;;;;;13.70;8.77;;;23.30;99.90;;;;;;4975050;28;20473;-72
2021/07/23 09:36:08;;;;;;;190.98;36.47;;;23.30;99.90;;;;;;4973448;28;20136;-72
2021/07/23 09:38:36;;;;;;;14.40;11.57;;;23.50;99.90;;;;;;4974893;28;20089;-72
2021/07/23 09:41:02;;;;;;;138.27;30.55;;;23.60;99.90;;;;;;4974863;28;20033;-72
2021/07/23 09:43:29;;;;;;;18.42;13.40;;;23.80;99.90;;;;;;4974767;28;20022;-72
2021/07/23 09:45:55;;;;;;;140.25;54.70;;;23.70;99.90;;;;;;4973083;28;20023;-72
2021/07/23 09:48:20;;;;;;;13.52;7.68;;;23.80;99.90;;;;;;4974573;28;20030;-72
2021/07/23 09:50:46;;;;;;;19.42;7.90;;;23.70;99.90;;;;;;4994285;28;20040;-72
2021/07/23 09:53:19;;;;;;;26.40;24.73;;;23.80;99.90;;;;;;5000463;28;20050;-72
2021/07/23 09:55:49;;;;;;;24.88;23.13;;;23.90;99.90;;;;;;4993765;28;20041;-72
2021/07/23 09:58:21;;;;;;;243.63;217.07;;;23.90;99.90;;;;;;4978164;28;20030;-72
2021/07/23 10:01:00;;;;;;;13.52;7.90;;;23.90;99.90;;;;;;4974520;28;20031;-73
2021/07/23 10:03:27;;;;;;;14.25;8.10;;;24.00;99.90;;;;;;4974411;28;20034;-72
2021/07/23 10:06:08;;;;;;;13.82;9.13;;;24.10;99.90;;;;;;4974195;28;20030;-72
2021/07/23 10:08:38;;;;;;;15.52;8.20;;;24.40;99.90;;;;;;4974138;28;20049;-73
2021/07/23 10:11:07;;;;;;;12.55;7.93;;;24.40;99.90;;;;;;4974522;28;20078;-72
2021/07/23 10:13:38;;;;;;;14.48;8.45;;;24.30;99.90;;;;;;4974312;28;20496;-72
2021/07/23 10:16:05;;;;;;;16.65;8.82;;;24.60;99.90;;;;;;4973943;28;20103;-73
2021/07/23 10:18:33;;;;;;;11.95;7.25;;;24.50;99.90;;;;;;4972740;28;20026;-72
2021/07/23 10:20:59;;;;;;;10.65;7.85;;;24.20;99.90;;;;;;4973961;28;20034;-73
2021/07/23 10:23:26;;;;;;;13.50;7.82;;;24.40;99.90;;;;;;4974044;28;20113;-72
2021/07/23 10:25:54;;;;;;;12.35;7.90;;;24.40;99.90;;;;;;4973767;28;20023;-72
2021/07/23 10:28:42;;;;;;;14.90;8.43;;;24.50;99.90;;;;;;4973645;28;20090;-72
2021/07/23 10:31:21;;;;;;;14.63;9.50;;;24.50;99.90;;;;;;4973822;28;20396;-72
2021/07/23 10:33:52;;;;;;;13.75;8.18;;;24.50;99.90;;;;;;4972613;28;20023;-72
2021/07/23 10:36:36;;;;;;;20.10;12.57;;;24.60;99.90;;;;;;4973724;28;20441;-72
2021/07/23 10:39:04;;;;;;;15.65;12.13;;;24.90;99.90;;;;;;4972467;28;20031;-72
2021/07/23 10:41:34;;;;;;;14.63;11.52;;;24.90;99.90;;;;;;4972809;28;20070;-72
2021/07/23 10:43:59;;;;;;;16.88;12.60;;;25.00;99.90;;;;;;4973448;28;20477;-72
2021/07/23 10:46:45;;;;;;;18.02;12.60;;;24.60;99.90;;;;;;4973493;28;20034;-72
2021/07/23 10:49:31;;;;;;;16.63;12.13;;;24.90;99.90;;;;;;4973314;28;20045;-72
2021/07/23 10:52:00;;;;;;;;;;;25.10;99.90;;;;;;5001584;28;20416;-72
2021/07/23 10:54:30;;;;;;;15.77;12.73;;;25.30;99.90;;;;;;4991454;28;19960;-72
2021/07/23 10:57:01;;;;;;;14.32;11.88;;;25.20;99.90;;;;;;4989235;28;20022;-72
2021/07/23 10:59:41;;;;;;;16.23;12.43;;;25.50;99.90;;;;;;4973566;28;20644;-73
2021/07/23 11:02:27;;;;;;;18.58;13.13;;;25.20;99.90;;;;;;4972052;28;20038;-72
2021/07/23 11:05:06;;;;;;;1057.20;181.85;;;25.10;99.90;;;;;;4972406;28;20035;-72
2021/07/23 11:07:32;;;;;;;16.73;12.25;;;25.50;99.90;;;;;;4973417;28;20118;-72
2021/07/23 11:09:58;;;;;;;16.08;11.85;;;26.00;99.90;;;;;;4973183;28;20109;-72
2021/07/23 11:12:25;;;;;;;16.80;12.38;;;26.30;99.90;;;;;;4971949;28;20031;-72
2021/07/23 11:14:59;;;;;;;17.02;12.07;;;26.20;99.90;;;;;;4972787;28;20130;-72
2021/07/23 11:17:26;;;;;;;16.05;12.45;;;26.20;99.90;;;;;;4973232;28;20022;-72
2021/07/23 11:19:58;;;;;;;15.68;13.20;;;25.80;99.90;;;;;;4972908;28;20035;-72
2021/07/23 11:22:29;;;;;;;15.40;12.50;;;25.60;99.90;;;;;;4973168;28;20019;-73
2021/07/23 11:24:59;;;;;;;15.90;13.48;;;26.00;99.90;;;;;;4972874;28;20026;-72
2021/07/23 11:27:30;;;;;;;21.90;12.20;;;26.10;99.90;;;;;;4972819;28;20504;-72
2021/07/23 11:29:57;;;;;;;20.15;11.60;;;25.60;99.90;;;;;;4972974;28;20026;-73
2021/07/23 11:32:23;;;;;;;17.02;11.35;;;26.10;99.90;;;;;;4973062;28;20023;-72
2021/07/23 11:35:05;;;;;;;21.15;8.75;;;26.30;99.90;;;;;;4972696;28;20050;-72
2021/07/23 11:37:30;;;;;;;14.05;8.48;;;26.40;99.90;;;;;;4972887;28;20520;-73
2021/07/23 11:40:02;;;;;;;11.10;6.85;;;26.10;99.90;;;;;;4972156;28;20073;-72
2021/07/23 11:42:34;;;;;;;14.93;8.07;;;27.10;99.90;;;;;;4971386;28;20097;-72
2021/07/23 11:45:00;;;;;;;10.68;8.07;;;26.80;99.90;;;;;;4972678;28;20101;-72
2021/07/23 11:47:30;;;;;;;13.35;8.18;;;26.80;99.90;;;;;;4972848;28;20038;-72
2021/07/23 11:49:57;;;;;;;11.50;7.97;;;27.10;99.90;;;;;;4978762;28;20038;-72
2021/07/23 11:52:24;;;;;;;15.15;10.32;;;26.60;99.90;;;;;;4972785;28;20081;-72
2021/07/23 11:55:00;;;;;;;18.63;10.57;;;26.40;99.90;;;;;;4971102;28;20114;-72
2021/07/23 11:57:28;;;;;;;14.50;9.65;;;26.20;99.90;;;;;;4975934;28;20023;-73
2021/07/23 11:59:53;;;;;;;15.02;9.75;;;26.60;99.90;;;;;;4971410;28;20480;-73
2021/07/23 12:02:24;;;;;;;16.70;10.30;;;26.60;99.90;;;;;;4971382;28;20118;-73
2021/07/23 12:05:04;;;;;;;10.82;5.00;;;26.60;99.90;;;;;;4972472;28;20026;-73
2021/07/23 12:07:30;;;;;;;13.50;8.00;;;27.20;99.90;;;;;;4971486;28;20031;-73
2021/07/23 12:09:57;;;;;;;15.07;7.78;;;27.50;99.90;;;;;;4972685;28;20038;-73
2021/07/23 12:12:23;;;;;;;12.05;7.43;;;27.40;99.90;;;;;;4972558;28;20027;-72
2021/07/23 12:14:48;;;;;;;11.57;7.13;;;27.50;99.90;;;;;;4972799;28;20038;-72
2021/07/23 12:17:14;;;;;;;13.52;7.93;;;28.10;99.90;;;;;;4971591;28;20031;-72
2021/07/23 12:19:40;;;;;;;14.55;7.88;;;28.20;99.90;;;;;;4972301;28;20105;-73
2021/07/23 12:22:10;;;;;;;13.55;7.57;;;28.60;99.90;;;;;;4972503;28;20389;-72
2021/07/23 12:24:36;;;;;;;19.65;12.30;;;28.30;99.90;;;;;;4972222;28;20038;-72
2021/07/23 12:27:18;;;;;;;18.42;14.43;;;28.40;99.90;;;;;;4971144;28;20035;-72
2021/07/23 12:29:44;;;;;;;17.88;12.88;;;27.60;99.90;;;;;;4979631;28;20018;-72